sensor_id;sensor_type;location;lat;lon;timestamp;temperature;humidity
15013;DHT22;7603;49.432;11.418;2022-09-24T00:03:33;8.40;99.90
15013;DHT22;7603;49.432;11.418;2022-09-24T00:06:02;8.40;99.90
15013;DHT22;7603;49.432;11.418;2022-09-24T00:08:28;8.40;99.90
15013;DHT22;7603;49.432;11.418;2022-09-24T00:10:53;8.40;99.90
15013;DHT22;7603;49.432;11.418;2022-09-24T00:13:21;8.40;99.90
15013;DHT22;7603;49.432;11.418;2022-09-24T00:15:49;8.40;99.90
15013;DHT22;7603;49.432;11.418;2022-09-24T00:18:17;8.40;99.90
15013;DHT22;7603;49.432;11.418;2022-09-24T00:20:43;8.30;99.90
15013;DHT22;7603;49.432;11.418;2022-09-24T00:23:10;8.40;99.90
15013;DHT22;7603;49.432;11.418;2022-09-24T00:25:43;8.30;99.90
15013;DHT22;7603;49.432;11.418;2022-09-24T00:28:28;8.30;99.90
15013;DHT22;7603;49.432;11.418;2022-09-24T00:30:56;8.30;99.90
15013;DHT22;7603;49.432;11.418;2022-09-24T00:33:25;8.30;99.90
15013;DHT22;7603;49.432;11.418;2022-09-24T00:35:57;8.30;99.90
15013;DHT22;7603;49.432;11.418;2022-09-24T00:38:23;8.40;99.90
15013;DHT22;7603;49.432;11.418;2022-09-24T00:40:49;8.40;99.90
15013;DHT22;7603;49.432;11.418;2022-09-24T00:43:25;8.40;99.90
15013;DHT22;7603;49.432;11.418;2022-09-24T00:46:13;8.40;99.90
15013;DHT22;7603;49.432;11.418;2022-09-24T00:48:41;8.50;99.90
15013;DHT22;7603;49.432;11.418;2022-09-24T00:51:08;8.50;99.90
15013;DHT22;7603;49.432;11.418;2022-09-24T00:53:37;8.50;99.90
15013;DHT22;7603;49.432;11.418;2022-09-24T00:56:03;8.50;99.90
15013;DHT22;7603;49.432;11.418;2022-09-24T00:58:30;8.50;99.90
15013;DHT22;7603;49.432;11.418;2022-09-24T01:01:03;8.50;99.90
15013;DHT22;7603;49.432;11.418;2022-09-24T01:03:31;8.60;99.90
15013;DHT22;7603;49.432;11.418;2022-09-24T01:05:58;8.60;99.90
15013;DHT22;7603;49.432;11.418;2022-09-24T01:08:24;8.60;99.90
15013;DHT22;7603;49.432;11.418;2022-09-24T01:16:44;8.70;99.90
15013;DHT22;7603;49.432;11.418;2022-09-24T01:22:04;8.70;99.90
15013;DHT22;7603;49.432;11.418;2022-09-24T01:27:20;8.70;99.90
15013;DHT22;7603;49.432;11.418;2022-09-24T01:29:59;8.70;99.90
15013;DHT22;7603;49.432;11.418;2022-09-24T01:32:49;8.70;99.90
15013;DHT22;7603;49.432;11.418;2022-09-24T01:35:23;8.70;99.90
15013;DHT22;7603;49.432;11.418;2022-09-24T01:37:58;8.70;99.90
15013;DHT22;7603;49.432;11.418;2022-09-24T01:40:26;8.70;99.90
15013;DHT22;7603;49.432;11.418;2022-09-24T01:42:56;8.70;99.90
15013;DHT22;7603;49.432;11.418;2022-09-24T01:45:22;8.70;99.90
15013;DHT22;7603;49.432;11.418;2022-09-24T01:47:49;8.70;99.90
15013;DHT22;7603;49.432;11.418;2022-09-24T01:50:17;8.70;99.90
15013;DHT22;7603;49.432;11.418;2022-09-24T01:52:58;8.70;99.90
15013;DHT22;7603;49.432;11.418;2022-09-24T01:55:30;8.60;99.90
15013;DHT22;7603;49.432;11.418;2022-09-24T01:58:03;8.60;99.90
15013;DHT22;7603;49.432;11.418;2022-09-24T02:00:29;8.50;99.90
15013;DHT22;7603;49.432;11.418;2022-09-24T02:03:12;8.50;99.90
15013;DHT22;7603;49.432;11.418;2022-09-24T02:08:27;8.40;99.90
15013;DHT22;7603;49.432;11.418;2022-09-24T02:11:00;8.30;99.90
15013;DHT22;7603;49.432;11.418;2022-09-24T02:13:30;8.30;99.90
15013;DHT22;7603;49.432;11.418;2022-09-24T02:16:05;8.30;99.90
15013;DHT22;7603;49.432;11.418;2022-09-24T02:18:35;8.20;99.90
15013;DHT22;7603;49.432;11.418;2022-09-24T02:21:06;8.20;99.90
15013;DHT22;7603;49.432;11.418;2022-09-24T02:23:36;8.30;99.90
15013;DHT22;7603;49.432;11.418;2022-09-24T02:26:03;8.20;99.90
15013;DHT22;7603;49.432;11.418;2022-09-24T02:28:30;8.20;99.90
15013;DHT22;7603;49.432;11.418;2022-09-24T02:31:13;8.20;99.90
15013;DHT22;7603;49.432;11.418;2022-09-24T02:33:43;8.20;99.90
15013;DHT22;7603;49.432;11.418;2022-09-24T02:36:28;8.20;99.90
15013;DHT22;7603;49.432;11.418;2022-09-24T02:38:54;8.20;99.90
15013;DHT22;7603;49.432;11.418;2022-09-24T02:41:21;8.20;99.90
15013;DHT22;7603;49.432;11.418;2022-09-24T02:43:49;8.20;99.90
15013;DHT22;7603;49.432;11.418;2022-09-24T02:46:15;8.20;99.90
15013;DHT22;7603;49.432;11.418;2022-09-24T02:48:40;8.20;99.90
15013;DHT22;7603;49.432;11.418;2022-09-24T02:51:07;8.20;99.90
15013;DHT22;7603;49.432;11.418;2022-09-24T02:53:33;8.20;99.90
15013;DHT22;7603;49.432;11.418;2022-09-24T02:55:59;8.20;99.90
15013;DHT22;7603;49.432;11.418;2022-09-24T02:58:28;8.20;99.90
15013;DHT22;7603;49.432;11.418;2022-09-24T03:00:54;8.20;99.90
15013;DHT22;7603;49.432;11.418;2022-09-24T03:03:21;8.30;99.90
15013;DHT22;7603;49.432;11.418;2022-09-24T03:05:48;8.30;99.90
15013;DHT22;7603;49.432;11.418;2022-09-24T03:08:13;8.30;99.90
15013;DHT22;7603;49.432;11.418;2022-09-24T03:10:39;8.30;99.90
15013;DHT22;7603;49.432;11.418;2022-09-24T03:13:04;8.30;99.90
15013;DHT22;7603;49.432;11.418;2022-09-24T03:15:30;8.30;99.90
15013;DHT22;7603;49.432;11.418;2022-09-24T03:17:55;8.20;99.90
15013;DHT22;7603;49.432;11.418;2022-09-24T03:20:21;8.30;99.90
15013;DHT22;7603;49.432;11.418;2022-09-24T03:22:51;8.30;99.90
15013;DHT22;7603;49.432;11.418;2022-09-24T03:25:18;8.40;99.90
15013;DHT22;7603;49.432;11.418;2022-09-24T03:27:44;8.40;99.90
15013;DHT22;7603;49.432;11.418;2022-09-24T03:30:10;8.40;99.90
15013;DHT22;7603;49.432;11.418;2022-09-24T03:32:54;8.40;99.90
15013;DHT22;7603;49.432;11.418;2022-09-24T03:35:20;8.30;99.90
15013;DHT22;7603;49.432;11.418;2022-09-24T03:37:46;8.50;99.90
15013;DHT22;7603;49.432;11.418;2022-09-24T03:40:11;8.30;99.90
15013;DHT22;7603;49.432;11.418;2022-09-24T03:42:37;8.30;99.90
15013;DHT22;7603;49.432;11.418;2022-09-24T03:45:03;8.30;99.90
15013;DHT22;7603;49.432;11.418;2022-09-24T03:47:29;8.30;99.90
15013;DHT22;7603;49.432;11.418;2022-09-24T03:49:56;8.30;99.90
15013;DHT22;7603;49.432;11.418;2022-09-24T03:52:22;8.30;99.90
15013;DHT22;7603;49.432;11.418;2022-09-24T03:54:48;8.30;99.90
15013;DHT22;7603;49.432;11.418;2022-09-24T03:57:13;8.30;99.90
15013;DHT22;7603;49.432;11.418;2022-09-24T03:59:43;8.30;99.90
15013;DHT22;7603;49.432;11.418;2022-09-24T04:02:09;8.30;99.90
15013;DHT22;7603;49.432;11.418;2022-09-24T04:04:35;8.30;99.90
15013;DHT22;7603;49.432;11.418;2022-09-24T04:07:01;8.30;99.90
15013;DHT22;7603;49.432;11.418;2022-09-24T04:09:26;8.40;99.90
15013;DHT22;7603;49.432;11.418;2022-09-24T04:11:52;8.40;99.90
15013;DHT22;7603;49.432;11.418;2022-09-24T04:14:18;8.40;99.90
15013;DHT22;7603;49.432;11.418;2022-09-24T04:16:44;8.50;99.90
15013;DHT22;7603;49.432;11.418;2022-09-24T04:19:11;8.40;99.90
15013;DHT22;7603;49.432;11.418;2022-09-24T04:21:37;8.50;99.90
15013;DHT22;7603;49.432;11.418;2022-09-24T04:24:03;8.50;99.90
15013;DHT22;7603;49.432;11.418;2022-09-24T04:26:29;8.50;99.90
15013;DHT22;7603;49.432;11.418;2022-09-24T04:28:54;8.40;99.90
15013;DHT22;7603;49.432;11.418;2022-09-24T04:31:23;8.50;99.90
15013;DHT22;7603;49.432;11.418;2022-09-24T04:33:49;8.60;99.90
15013;DHT22;7603;49.432;11.418;2022-09-24T04:36:15;8.60;99.90
15013;DHT22;7603;49.432;11.418;2022-09-24T04:38:41;8.60;99.90
15013;DHT22;7603;49.432;11.418;2022-09-24T04:41:08;8.60;99.90
15013;DHT22;7603;49.432;11.418;2022-09-24T04:43:34;8.60;99.90
15013;DHT22;7603;49.432;11.418;2022-09-24T04:46:01;8.60;99.90
15013;DHT22;7603;49.432;11.418;2022-09-24T04:48:27;8.50;99.90
15013;DHT22;7603;49.432;11.418;2022-09-24T04:50:52;8.60;99.90
15013;DHT22;7603;49.432;11.418;2022-09-24T04:53:18;8.50;99.90
15013;DHT22;7603;49.432;11.418;2022-09-24T04:55:44;8.50;99.90
15013;DHT22;7603;49.432;11.418;2022-09-24T04:58:09;8.50;99.90
15013;DHT22;7603;49.432;11.418;2022-09-24T05:00:36;8.50;99.90
15013;DHT22;7603;49.432;11.418;2022-09-24T05:03:02;8.30;99.90
15013;DHT22;7603;49.432;11.418;2022-09-24T05:05:29;8.30;99.90
15013;DHT22;7603;49.432;11.418;2022-09-24T05:07:55;8.30;99.90
15013;DHT22;7603;49.432;11.418;2022-09-24T05:10:26;8.20;99.90
15013;DHT22;7603;49.432;11.418;2022-09-24T05:12:52;8.20;99.90
15013;DHT22;7603;49.432;11.418;2022-09-24T05:15:18;8.20;99.90
15013;DHT22;7603;49.432;11.418;2022-09-24T05:17:44;8.20;99.90
15013;DHT22;7603;49.432;11.418;2022-09-24T05:20:10;8.30;99.90
15013;DHT22;7603;49.432;11.418;2022-09-24T05:22:43;8.20;99.90
15013;DHT22;7603;49.432;11.418;2022-09-24T05:25:10;8.20;99.90
15013;DHT22;7603;49.432;11.418;2022-09-24T05:27:36;8.20;99.90
15013;DHT22;7603;49.432;11.418;2022-09-24T05:30:03;8.20;99.90
15013;DHT22;7603;49.432;11.418;2022-09-24T05:32:30;8.10;99.90
15013;DHT22;7603;49.432;11.418;2022-09-24T05:35:00;8.20;99.90
15013;DHT22;7603;49.432;11.418;2022-09-24T05:37:25;8.10;99.90
15013;DHT22;7603;49.432;11.418;2022-09-24T05:39:51;8.10;99.90
15013;DHT22;7603;49.432;11.418;2022-09-24T05:42:18;8.10;99.90
15013;DHT22;7603;49.432;11.418;2022-09-24T05:44:43;8.00;99.90
15013;DHT22;7603;49.432;11.418;2022-09-24T05:47:09;8.00;99.90
15013;DHT22;7603;49.432;11.418;2022-09-24T05:49:35;8.00;99.90
15013;DHT22;7603;49.432;11.418;2022-09-24T05:52:01;8.00;99.90
15013;DHT22;7603;49.432;11.418;2022-09-24T05:54:27;8.00;99.90
15013;DHT22;7603;49.432;11.418;2022-09-24T05:56:53;8.00;99.90
15013;DHT22;7603;49.432;11.418;2022-09-24T05:59:19;8.10;99.90
15013;DHT22;7603;49.432;11.418;2022-09-24T06:01:45;8.10;99.90
15013;DHT22;7603;49.432;11.418;2022-09-24T06:04:11;8.20;99.90
15013;DHT22;7603;49.432;11.418;2022-09-24T06:06:37;8.20;99.90
15013;DHT22;7603;49.432;11.418;2022-09-24T06:09:02;8.30;99.90
15013;DHT22;7603;49.432;11.418;2022-09-24T06:11:30;8.40;99.90
15013;DHT22;7603;49.432;11.418;2022-09-24T06:14:00;8.50;99.90
15013;DHT22;7603;49.432;11.418;2022-09-24T06:16:32;8.60;99.90
15013;DHT22;7603;49.432;11.418;2022-09-24T06:18:58;8.70;99.90
15013;DHT22;7603;49.432;11.418;2022-09-24T06:21:24;8.90;99.90
15013;DHT22;7603;49.432;11.418;2022-09-24T06:23:50;9.00;99.90
15013;DHT22;7603;49.432;11.418;2022-09-24T06:26:18;9.20;99.90
15013;DHT22;7603;49.432;11.418;2022-09-24T06:28:44;9.30;99.90
15013;DHT22;7603;49.432;11.418;2022-09-24T06:31:12;9.50;99.90
15013;DHT22;7603;49.432;11.418;2022-09-24T06:33:38;9.70;99.90
15013;DHT22;7603;49.432;11.418;2022-09-24T06:36:05;9.80;99.90
15013;DHT22;7603;49.432;11.418;2022-09-24T06:38:31;10.00;99.90
15013;DHT22;7603;49.432;11.418;2022-09-24T06:41:02;10.10;99.90
15013;DHT22;7603;49.432;11.418;2022-09-24T06:43:29;10.20;99.90
15013;DHT22;7603;49.432;11.418;2022-09-24T06:45:55;10.30;99.90
15013;DHT22;7603;49.432;11.418;2022-09-24T06:48:22;10.30;99.90
15013;DHT22;7603;49.432;11.418;2022-09-24T06:50:48;10.40;99.90
15013;DHT22;7603;49.432;11.418;2022-09-24T06:53:14;10.50;99.90
15013;DHT22;7603;49.432;11.418;2022-09-24T06:55:41;10.70;99.90
15013;DHT22;7603;49.432;11.418;2022-09-24T06:58:12;10.90;99.90
15013;DHT22;7603;49.432;11.418;2022-09-24T07:00:39;11.00;99.90
15013;DHT22;7603;49.432;11.418;2022-09-24T07:03:14;11.20;99.90
15013;DHT22;7603;49.432;11.418;2022-09-24T07:05:41;11.40;99.90
15013;DHT22;7603;49.432;11.418;2022-09-24T07:08:07;11.60;99.90
15013;DHT22;7603;49.432;11.418;2022-09-24T07:10:33;11.70;99.90
15013;DHT22;7603;49.432;11.418;2022-09-24T07:12:59;12.00;99.90
15013;DHT22;7603;49.432;11.418;2022-09-24T07:15:25;12.10;99.90
15013;DHT22;7603;49.432;11.418;2022-09-24T07:17:56;12.30;99.90
15013;DHT22;7603;49.432;11.418;2022-09-24T07:20:23;12.40;99.90
15013;DHT22;7603;49.432;11.418;2022-09-24T07:22:52;12.50;99.90
15013;DHT22;7603;49.432;11.418;2022-09-24T07:25:19;12.60;99.90
15013;DHT22;7603;49.432;11.418;2022-09-24T07:27:45;12.80;99.90
15013;DHT22;7603;49.432;11.418;2022-09-24T07:30:11;13.00;99.90
15013;DHT22;7603;49.432;11.418;2022-09-24T07:32:37;13.30;99.90
15013;DHT22;7603;49.432;11.418;2022-09-24T07:35:03;13.60;99.90
15013;DHT22;7603;49.432;11.418;2022-09-24T07:37:29;13.90;99.90
15013;DHT22;7603;49.432;11.418;2022-09-24T07:39:57;14.20;99.90
15013;DHT22;7603;49.432;11.418;2022-09-24T07:42:23;14.60;99.90
15013;DHT22;7603;49.432;11.418;2022-09-24T07:44:50;14.90;99.90
15013;DHT22;7603;49.432;11.418;2022-09-24T07:47:17;15.20;99.90
15013;DHT22;7603;49.432;11.418;2022-09-24T07:49:43;15.50;99.90
15013;DHT22;7603;49.432;11.418;2022-09-24T07:52:09;15.70;99.90
15013;DHT22;7603;49.432;11.418;2022-09-24T07:54:35;16.00;99.90
15013;DHT22;7603;49.432;11.418;2022-09-24T07:57:01;16.20;99.90
15013;DHT22;7603;49.432;11.418;2022-09-24T07:59:28;16.40;99.90
15013;DHT22;7603;49.432;11.418;2022-09-24T08:01:55;16.60;99.90
15013;DHT22;7603;49.432;11.418;2022-09-24T08:04:21;16.60;99.90
15013;DHT22;7603;49.432;11.418;2022-09-24T08:06:47;16.60;99.90
15013;DHT22;7603;49.432;11.418;2022-09-24T08:09:14;16.60;99.90
15013;DHT22;7603;49.432;11.418;2022-09-24T08:11:41;16.80;99.90
15013;DHT22;7603;49.432;11.418;2022-09-24T08:14:07;17.10;99.90
15013;DHT22;7603;49.432;11.418;2022-09-24T08:16:33;17.50;99.90
15013;DHT22;7603;49.432;11.418;2022-09-24T08:19:00;18.00;99.90
15013;DHT22;7603;49.432;11.418;2022-09-24T08:21:26;18.40;99.90
15013;DHT22;7603;49.432;11.418;2022-09-24T08:23:52;18.80;99.90
15013;DHT22;7603;49.432;11.418;2022-09-24T08:26:18;19.30;99.90
15013;DHT22;7603;49.432;11.418;2022-09-24T08:28:44;19.80;99.90
15013;DHT22;7603;49.432;11.418;2022-09-24T08:31:11;20.40;99.90
15013;DHT22;7603;49.432;11.418;2022-09-24T08:33:38;21.10;99.90
15013;DHT22;7603;49.432;11.418;2022-09-24T08:36:06;21.60;99.90
15013;DHT22;7603;49.432;11.418;2022-09-24T08:38:33;21.90;99.90
15013;DHT22;7603;49.432;11.418;2022-09-24T08:46:22;22.70;98.90
15013;DHT22;7603;49.432;11.418;2022-09-24T08:49:12;23.20;96.80
15013;DHT22;7603;49.432;11.418;2022-09-24T08:54:29;23.80;92.80
15013;DHT22;7603;49.432;11.418;2022-09-24T08:56:55;23.90;91.50
15013;DHT22;7603;49.432;11.418;2022-09-24T08:59:32;23.80;90.90
15013;DHT22;7603;49.432;11.418;2022-09-24T09:10:22;23.80;89.10
15013;DHT22;7603;49.432;11.418;2022-09-24T09:13:03;24.10;86.50
15013;DHT22;7603;49.432;11.418;2022-09-24T09:15:34;24.40;84.90
15013;DHT22;7603;49.432;11.418;2022-09-24T09:18:16;24.70;84.00
15013;DHT22;7603;49.432;11.418;2022-09-24T09:20:45;24.80;81.50
15013;DHT22;7603;49.432;11.418;2022-09-24T09:23:25;24.90;80.30
15013;DHT22;7603;49.432;11.418;2022-09-24T09:25:56;24.70;79.60
15013;DHT22;7603;49.432;11.418;2022-09-24T09:28:22;24.40;79.80
15013;DHT22;7603;49.432;11.418;2022-09-24T09:42:07;23.60;81.20
15013;DHT22;7603;49.432;11.418;2022-09-24T09:44:41;23.50;81.30
15013;DHT22;7603;49.432;11.418;2022-09-24T09:49:42;23.20;82.10
15013;DHT22;7603;49.432;11.418;2022-09-24T09:52:19;23.30;83.10
15013;DHT22;7603;49.432;11.418;2022-09-24T09:54:45;23.60;82.70
15013;DHT22;7603;49.432;11.418;2022-09-24T09:57:14;24.20;81.40
15013;DHT22;7603;49.432;11.418;2022-09-24T09:59:45;24.80;79.50
15013;DHT22;7603;49.432;11.418;2022-09-24T10:02:21;25.50;77.50
15013;DHT22;7603;49.432;11.418;2022-09-24T10:04:52;26.20;74.90
15013;DHT22;7603;49.432;11.418;2022-09-24T10:07:18;27.10;71.70
15013;DHT22;7603;49.432;11.418;2022-09-24T10:09:45;27.70;69.00
15013;DHT22;7603;49.432;11.418;2022-09-24T10:12:15;28.10;66.40
15013;DHT22;7603;49.432;11.418;2022-09-24T10:14:42;28.10;64.90
15013;DHT22;7603;49.432;11.418;2022-09-24T10:17:17;28.10;63.90
15013;DHT22;7603;49.432;11.418;2022-09-24T10:19:43;28.00;62.90
15013;DHT22;7603;49.432;11.418;2022-09-24T10:22:20;28.10;63.50
15013;DHT22;7603;49.432;11.418;2022-09-24T10:24:47;28.30;62.70
15013;DHT22;7603;49.432;11.418;2022-09-24T10:27:21;28.50;60.60
15013;DHT22;7603;49.432;11.418;2022-09-24T10:29:52;28.20;59.70
15013;DHT22;7603;49.432;11.418;2022-09-24T10:32:38;27.90;60.10
15013;DHT22;7603;49.432;11.418;2022-09-24T10:35:21;27.50;60.50
15013;DHT22;7603;49.432;11.418;2022-09-24T10:37:57;27.00;61.00
15013;DHT22;7603;49.432;11.418;2022-09-24T10:40:37;26.60;61.70
15013;DHT22;7603;49.432;11.418;2022-09-24T10:43:05;26.30;63.10
15013;DHT22;7603;49.432;11.418;2022-09-24T10:48:44;25.90;63.40
15013;DHT22;7603;49.432;11.418;2022-09-24T10:54:17;25.30;64.90
15013;DHT22;7603;49.432;11.418;2022-09-24T10:56:49;24.90;66.50
15013;DHT22;7603;49.432;11.418;2022-09-24T11:18:51;23.90;71.80
15013;DHT22;7603;49.432;11.418;2022-09-24T11:26:57;23.30;73.90
15013;DHT22;7603;49.432;11.418;2022-09-24T11:40:41;23.20;76.40
15013;DHT22;7603;49.432;11.418;2022-09-24T11:46:17;23.20;76.80
15013;DHT22;7603;49.432;11.418;2022-09-24T11:56:41;23.60;77.00
15013;DHT22;7603;49.432;11.418;2022-09-24T12:01:53;23.50;76.90
15013;DHT22;7603;49.432;11.418;2022-09-24T12:04:25;23.50;78.70
15013;DHT22;7603;49.432;11.418;2022-09-24T12:07:07;23.40;78.20
15013;DHT22;7603;49.432;11.418;2022-09-24T12:10:38;23.30;78.40
15013;DHT22;7603;49.432;11.418;2022-09-24T12:12:47;23.30;78.50
15013;DHT22;7603;49.432;11.418;2022-09-24T12:15:21;23.40;78.20
15013;DHT22;7603;49.432;11.418;2022-09-24T12:17:55;23.20;78.90
15013;DHT22;7603;49.432;11.418;2022-09-24T12:20:26;23.10;78.50
15013;DHT22;7603;49.432;11.418;2022-09-24T12:23:00;22.90;79.10
15013;DHT22;7603;49.432;11.418;2022-09-24T12:25:40;22.80;80.80
15013;DHT22;7603;49.432;11.418;2022-09-24T12:28:12;22.60;81.90
15013;DHT22;7603;49.432;11.418;2022-09-24T12:30:49;22.50;82.10
15013;DHT22;7603;49.432;11.418;2022-09-24T12:33:51;22.40;82.10
15013;DHT22;7603;49.432;11.418;2022-09-24T12:36:36;22.30;82.10
15013;DHT22;7603;49.432;11.418;2022-09-24T12:39:08;22.20;82.30
15013;DHT22;7603;49.432;11.418;2022-09-24T12:41:40;21.90;82.70
15013;DHT22;7603;49.432;11.418;2022-09-24T12:47:12;21.60;83.80
15013;DHT22;7603;49.432;11.418;2022-09-24T12:49:37;21.50;84.30
15013;DHT22;7603;49.432;11.418;2022-09-24T12:52:22;21.40;84.80
15013;DHT22;7603;49.432;11.418;2022-09-24T12:54:58;21.40;86.00
15013;DHT22;7603;49.432;11.418;2022-09-24T12:57:31;21.40;85.80
15013;DHT22;7603;49.432;11.418;2022-09-24T13:00:00;21.60;86.00
15013;DHT22;7603;49.432;11.418;2022-09-24T13:02:29;21.90;86.50
15013;DHT22;7603;49.432;11.418;2022-09-24T13:07:30;23.70;84.80
15013;DHT22;7603;49.432;11.418;2022-09-24T13:09:56;24.80;78.20
15013;DHT22;7603;49.432;11.418;2022-09-24T13:12:30;25.50;74.80
15013;DHT22;7603;49.432;11.418;2022-09-24T13:15:03;25.80;72.90
15013;DHT22;7603;49.432;11.418;2022-09-24T13:17:33;25.70;71.40
15013;DHT22;7603;49.432;11.418;2022-09-24T13:20:05;25.60;71.10
15013;DHT22;7603;49.432;11.418;2022-09-24T13:22:36;25.50;71.00
15013;DHT22;7603;49.432;11.418;2022-09-24T13:27:40;25.30;70.50
15013;DHT22;7603;49.432;11.418;2022-09-24T13:30:21;25.00;71.30
15013;DHT22;7603;49.432;11.418;2022-09-24T13:33:03;24.50;71.80
15013;DHT22;7603;49.432;11.418;2022-09-24T13:35:49;24.10;72.80
15013;DHT22;7603;49.432;11.418;2022-09-24T13:38:43;23.80;74.00
15013;DHT22;7603;49.432;11.418;2022-09-24T13:46:55;24.30;74.50
15013;DHT22;7603;49.432;11.418;2022-09-24T13:49:23;24.70;74.30
15013;DHT22;7603;49.432;11.418;2022-09-24T13:52:11;25.30;72.80
15013;DHT22;7603;49.432;11.418;2022-09-24T13:54:49;25.80;71.20
15013;DHT22;7603;49.432;11.418;2022-09-24T13:57:25;26.30;70.10
15013;DHT22;7603;49.432;11.418;2022-09-24T14:00:15;26.80;67.50
15013;DHT22;7603;49.432;11.418;2022-09-24T14:05:18;27.20;63.50
15013;DHT22;7603;49.432;11.418;2022-09-24T14:08:04;27.80;62.40
15013;DHT22;7603;49.432;11.418;2022-09-24T14:10:31;28.40;59.30
15013;DHT22;7603;49.432;11.418;2022-09-24T14:15:58;28.20;59.00
15013;DHT22;7603;49.432;11.418;2022-09-24T14:18:26;27.80;59.50
15013;DHT22;7603;49.432;11.418;2022-09-24T14:23:28;27.50;61.60
15013;DHT22;7603;49.432;11.418;2022-09-24T14:25:59;27.40;60.80
15013;DHT22;7603;49.432;11.418;2022-09-24T14:28:26;27.00;61.00
15013;DHT22;7603;49.432;11.418;2022-09-24T14:30:57;26.80;62.00
15013;DHT22;7603;49.432;11.418;2022-09-24T14:33:26;26.60;62.60
15013;DHT22;7603;49.432;11.418;2022-09-24T14:35:55;26.40;62.90
15013;DHT22;7603;49.432;11.418;2022-09-24T14:38:30;26.10;63.60
15013;DHT22;7603;49.432;11.418;2022-09-24T14:41:14;25.90;65.90
15013;DHT22;7603;49.432;11.418;2022-09-24T14:44:02;25.60;67.70
15013;DHT22;7603;49.432;11.418;2022-09-24T14:46:45;25.20;68.50
15013;DHT22;7603;49.432;11.418;2022-09-24T14:49:25;24.90;69.70
15013;DHT22;7603;49.432;11.418;2022-09-24T14:51:54;25.20;70.60
15013;DHT22;7603;49.432;11.418;2022-09-24T14:54:36;25.70;69.90
15013;DHT22;7603;49.432;11.418;2022-09-24T14:59:43;26.10;68.40
15013;DHT22;7603;49.432;11.418;2022-09-24T15:02:20;26.10;68.60
15013;DHT22;7603;49.432;11.418;2022-09-24T15:04:50;25.70;68.30
15013;DHT22;7603;49.432;11.418;2022-09-24T15:07:18;25.20;70.00
15013;DHT22;7603;49.432;11.418;2022-09-24T15:09:50;24.70;71.90
15013;DHT22;7603;49.432;11.418;2022-09-24T15:12:41;24.10;74.50
15013;DHT22;7603;49.432;11.418;2022-09-24T15:15:28;23.50;77.20
15013;DHT22;7603;49.432;11.418;2022-09-24T15:17:54;22.80;80.80
15013;DHT22;7603;49.432;11.418;2022-09-24T15:20:20;22.30;83.30
15013;DHT22;7603;49.432;11.418;2022-09-24T15:22:46;21.90;85.50
15013;DHT22;7603;49.432;11.418;2022-09-24T15:25:13;21.50;88.20
15013;DHT22;7603;49.432;11.418;2022-09-24T15:27:40;21.20;90.40
15013;DHT22;7603;49.432;11.418;2022-09-24T15:30:17;21.00;91.30
15013;DHT22;7603;49.432;11.418;2022-09-24T15:32:44;20.80;93.20
15013;DHT22;7603;49.432;11.418;2022-09-24T15:35:16;20.60;94.50
15013;DHT22;7603;49.432;11.418;2022-09-24T15:37:42;20.40;95.70
15013;DHT22;7603;49.432;11.418;2022-09-24T15:40:21;20.20;96.80
15013;DHT22;7603;49.432;11.418;2022-09-24T15:42:48;20.00;98.60
15013;DHT22;7603;49.432;11.418;2022-09-24T15:45:22;19.80;99.90
15013;DHT22;7603;49.432;11.418;2022-09-24T15:47:49;19.60;99.90
15013;DHT22;7603;49.432;11.418;2022-09-24T15:50:15;19.50;99.90
15013;DHT22;7603;49.432;11.418;2022-09-24T15:53:01;19.20;99.90
15013;DHT22;7603;49.432;11.418;2022-09-24T15:55:27;19.00;99.90
15013;DHT22;7603;49.432;11.418;2022-09-24T15:57:53;18.70;99.90
15013;DHT22;7603;49.432;11.418;2022-09-24T16:00:21;18.50;99.90
15013;DHT22;7603;49.432;11.418;2022-09-24T16:02:52;18.40;99.90
15013;DHT22;7603;49.432;11.418;2022-09-24T16:05:19;18.20;99.90
15013;DHT22;7603;49.432;11.418;2022-09-24T16:07:46;18.00;99.90
15013;DHT22;7603;49.432;11.418;2022-09-24T16:10:12;17.90;99.90
15013;DHT22;7603;49.432;11.418;2022-09-24T16:12:40;17.70;99.90
15013;DHT22;7603;49.432;11.418;2022-09-24T16:15:06;17.60;99.90
15013;DHT22;7603;49.432;11.418;2022-09-24T16:17:32;17.40;99.90
15013;DHT22;7603;49.432;11.418;2022-09-24T16:19:58;17.30;99.90
15013;DHT22;7603;49.432;11.418;2022-09-24T16:22:24;17.20;99.90
15013;DHT22;7603;49.432;11.418;2022-09-24T16:24:50;17.00;99.90
15013;DHT22;7603;49.432;11.418;2022-09-24T16:27:15;16.90;99.90
15013;DHT22;7603;49.432;11.418;2022-09-24T16:29:41;16.80;99.90
15013;DHT22;7603;49.432;11.418;2022-09-24T16:32:07;16.70;99.90
15013;DHT22;7603;49.432;11.418;2022-09-24T16:34:32;16.70;99.90
15013;DHT22;7603;49.432;11.418;2022-09-24T16:36:58;16.60;99.90
15013;DHT22;7603;49.432;11.418;2022-09-24T16:39:24;16.50;99.90
15013;DHT22;7603;49.432;11.418;2022-09-24T16:41:50;16.40;99.90
15013;DHT22;7603;49.432;11.418;2022-09-24T16:44:17;16.30;99.90
15013;DHT22;7603;49.432;11.418;2022-09-24T16:46:44;16.10;99.90
15013;DHT22;7603;49.432;11.418;2022-09-24T16:49:10;16.00;99.90
15013;DHT22;7603;49.432;11.418;2022-09-24T16:51:36;15.90;99.90
15013;DHT22;7603;49.432;11.418;2022-09-24T16:54:02;15.80;99.90
15013;DHT22;7603;49.432;11.418;2022-09-24T16:56:28;15.70;99.90
15013;DHT22;7603;49.432;11.418;2022-09-24T16:58:55;15.60;99.90
15013;DHT22;7603;49.432;11.418;2022-09-24T17:01:21;15.50;99.90
15013;DHT22;7603;49.432;11.418;2022-09-24T17:03:51;15.50;99.90
15013;DHT22;7603;49.432;11.418;2022-09-24T17:06:19;15.40;99.90
15013;DHT22;7603;49.432;11.418;2022-09-24T17:08:45;15.30;99.90
15013;DHT22;7603;49.432;11.418;2022-09-24T17:11:29;15.30;99.90
15013;DHT22;7603;49.432;11.418;2022-09-24T17:13:55;15.20;99.90
15013;DHT22;7603;49.432;11.418;2022-09-24T17:16:22;15.20;99.90
15013;DHT22;7603;49.432;11.418;2022-09-24T17:18:49;15.10;99.90
15013;DHT22;7603;49.432;11.418;2022-09-24T17:21:15;15.00;99.90
15013;DHT22;7603;49.432;11.418;2022-09-24T17:23:42;14.90;99.90
15013;DHT22;7603;49.432;11.418;2022-09-24T17:26:12;14.90;99.90
15013;DHT22;7603;49.432;11.418;2022-09-24T17:28:44;14.90;99.90
15013;DHT22;7603;49.432;11.418;2022-09-24T17:31:11;14.80;99.90
15013;DHT22;7603;49.432;11.418;2022-09-24T17:33:39;14.70;99.90
15013;DHT22;7603;49.432;11.418;2022-09-24T17:36:07;14.70;99.90
15013;DHT22;7603;49.432;11.418;2022-09-24T17:38:34;14.70;99.90
15013;DHT22;7603;49.432;11.418;2022-09-24T17:41:12;14.70;99.90
15013;DHT22;7603;49.432;11.418;2022-09-24T17:43:39;14.70;99.90
15013;DHT22;7603;49.432;11.418;2022-09-24T17:48:51;14.60;99.90
15013;DHT22;7603;49.432;11.418;2022-09-24T17:51:23;14.60;99.90
15013;DHT22;7603;49.432;11.418;2022-09-24T17:53:50;14.60;99.90
15013;DHT22;7603;49.432;11.418;2022-09-24T17:56:18;14.50;99.90
15013;DHT22;7603;49.432;11.418;2022-09-24T17:58:45;14.50;99.90
15013;DHT22;7603;49.432;11.418;2022-09-24T18:01:20;14.50;99.90
15013;DHT22;7603;49.432;11.418;2022-09-24T18:03:46;14.50;99.90